createdAt,value
2018-02-08T00:01:28.038Z,37.2
2018-02-08T00:11:27.319Z,36.2
2018-02-08T00:21:26.408Z,38.4
2018-02-08T00:31:25.982Z,37.8
2018-02-08T00:41:28.452Z,38.7
2018-02-08T00:51:26.308Z,36.1
2018-02-08T01:01:26.122Z,35.2
2018-02-08T01:11:26.176Z,33.1
2018-02-08T01:21:26.566Z,31.8
2018-02-08T01:31:26.976Z,33.8
2018-02-08T01:41:26.813Z,35.3
2018-02-08T01:51:26.385Z,34.4
2018-02-08T02:01:27.098Z,36.4
2018-02-08T02:11:27.740Z,35.5
2018-02-08T02:21:27.545Z,36.1
2018-02-08T02:31:26.392Z,36.3
2018-02-08T02:41:26.021Z,37.4
2018-02-08T02:51:27.142Z,37.8
2018-02-08T03:01:26.155Z,37.4
2018-02-08T03:11:25.770Z,36.6
2018-02-08T03:21:26.759Z,38.7
2018-02-08T03:31:27.328Z,40.2
2018-02-08T03:41:25.808Z,36.5
2018-02-08T03:51:26.991Z,36.2
2018-02-08T04:01:26.576Z,38.2
2018-02-08T04:11:26.427Z,39.4
2018-02-08T04:21:26.146Z,36.1
2018-02-08T04:31:25.933Z,37.7
2018-02-08T04:41:27.160Z,34.9
2018-02-08T04:51:42.124Z,37.9
2018-02-08T05:01:26.231Z,38.3
2018-02-08T05:11:26.343Z,40.1
2018-02-08T05:21:26.099Z,39.1
2018-02-08T05:31:26.663Z,38.6
2018-02-08T05:41:26.240Z,39.6
2018-02-08T05:51:26.228Z,37.7
2018-02-08T06:01:26.016Z,36.7
2018-02-08T06:11:27.064Z,39.3
2018-02-08T06:21:25.792Z,38.5
2018-02-08T06:31:27.492Z,41.5
2018-02-08T06:41:26.570Z,41.0
2018-02-08T06:51:25.942Z,39.4
2018-02-08T07:01:26.459Z,39.7
2018-02-08T07:11:26.297Z,39.3
2018-02-08T07:21:27.225Z,41.5
2018-02-08T07:31:25.990Z,37.2
2018-02-08T07:41:27.421Z,40.7
2018-02-08T07:51:28.136Z,40.8
2018-02-08T08:01:25.850Z,41.6
2018-02-08T08:11:26.897Z,40.0
2018-02-08T08:21:26.238Z,42.5
2018-02-08T08:31:25.749Z,43.6
2018-02-08T08:41:26.524Z,41.4
2018-02-08T08:51:26.014Z,39.1
2018-02-08T09:01:26.636Z,36.1
2018-02-08T09:11:26.169Z,39.0
2018-02-08T09:21:27.539Z,44.6
2018-02-08T09:31:26.903Z,44.7
2018-02-08T09:41:26.808Z,44.1
2018-02-08T09:51:26.613Z,49.4
2018-02-08T10:01:26.716Z,42.5
2018-02-08T10:11:26.223Z,40.1
2018-02-08T10:21:26.802Z,38.0
2018-02-08T10:31:26.592Z,41.6
2018-02-08T10:41:26.120Z,43.0
2018-02-08T10:51:28.075Z,41.6
2018-02-08T11:01:26.826Z,40.0
2018-02-08T11:11:26.359Z,35.2
2018-02-08T11:21:26.274Z,33.4
2018-02-08T11:31:26.543Z,37.4
2018-02-08T11:41:27.224Z,31.9
2018-02-08T11:51:26.090Z,35.3
2018-02-08T12:01:25.834Z,33.4
2018-02-08T12:11:26.992Z,31.7
2018-02-08T12:21:26.862Z,35.1
2018-02-08T12:31:26.405Z,33.4
2018-02-08T12:41:25.830Z,32.2
2018-02-08T12:51:26.352Z,33.2
2018-02-08T13:01:26.485Z,33.5
2018-02-08T13:11:26.503Z,30.8
2018-02-08T13:21:27.149Z,30.5
2018-02-08T13:31:26.330Z,33.8
2018-02-08T13:41:26.129Z,32.5
2018-02-08T13:51:26.237Z,28.9
2018-02-08T14:01:26.101Z,35.4
2018-02-08T14:11:26.584Z,32.9
2018-02-08T14:21:27.132Z,36.1
2018-02-08T14:31:25.801Z,28.8
2018-02-08T14:41:26.834Z,28.7
2018-02-08T14:51:27.023Z,31.1
2018-02-08T15:01:26.643Z,32.8
2018-02-08T15:11:26.139Z,31.5
2018-02-08T15:21:27.907Z,36.4
2018-02-08T15:31:27.523Z,33.3
2018-02-08T15:41:26.419Z,35.0
2018-02-08T15:51:26.103Z,37.2
2018-02-08T16:01:26.312Z,39.4
2018-02-08T16:11:27.089Z,40.3
2018-02-08T16:21:25.808Z,40.5
2018-02-08T16:31:27.686Z,43.1
2018-02-08T16:41:26.283Z,44.0
2018-02-08T16:51:25.812Z,43.3
2018-02-08T17:01:26.283Z,45.8
2018-02-08T17:11:27.137Z,46.8
2018-02-08T17:21:25.918Z,49.5
2018-02-08T17:31:26.827Z,49.5
2018-02-08T17:41:26.413Z,51.2
2018-02-08T17:51:25.951Z,45.2
2018-02-08T18:01:26.716Z,51.8
2018-02-08T18:11:26.218Z,51.1
2018-02-08T18:21:26.260Z,47.8
2018-02-08T18:31:26.464Z,49.2
2018-02-08T18:41:26.154Z,49.2
2018-02-08T18:51:25.722Z,49.5
2018-02-08T19:01:26.314Z,51.4
2018-02-08T19:11:26.050Z,51.9
2018-02-08T19:21:26.871Z,58.0
2018-02-08T19:31:26.876Z,51.2
2018-02-08T19:41:26.385Z,56.3
2018-02-08T19:51:26.151Z,56.4
2018-02-08T20:01:26.716Z,58.7
2018-02-08T20:11:26.893Z,57.8
2018-02-08T20:21:28.334Z,48.7
2018-02-08T20:31:25.873Z,50.3
2018-02-08T20:41:26.498Z,51.8
2018-02-08T20:51:26.935Z,47.1
2018-02-08T21:01:26.595Z,50.7
2018-02-08T21:11:26.113Z,50.0
2018-02-08T21:21:25.993Z,55.3
2018-02-08T21:31:26.535Z,56.4
2018-02-08T21:41:26.318Z,56.4
2018-02-08T21:51:26.628Z,59.1
2018-02-08T22:01:26.439Z,56.2
2018-02-08T22:11:27.468Z,55.2
2018-02-08T22:21:26.177Z,52.5
2018-02-08T22:31:25.994Z,48.4
2018-02-08T22:41:27.392Z,54.4
2018-02-08T22:51:25.845Z,56.1
2018-02-08T23:01:26.366Z,54.2
2018-02-08T23:11:26.667Z,61.1
2018-02-08T23:21:27.731Z,51.7
2018-02-08T23:31:26.303Z,51.0
2018-02-08T23:41:25.854Z,53.3
2018-02-08T23:51:26.868Z,61.3
